sensor_id;sensor_type;location;lat;lon;timestamp;P1;durP1;ratioP1;P2;durP2;ratioP2
55260;SDS011;41123;51.416;6.758;2022-07-23T00:00:54;12.15;;;6.07;;
55260;SDS011;41123;51.416;6.758;2022-07-23T00:03:20;13.05;;;6.68;;
55260;SDS011;41123;51.416;6.758;2022-07-23T00:05:46;11.35;;;5.72;;
55260;SDS011;41123;51.416;6.758;2022-07-23T00:08:12;13.15;;;6.72;;
55260;SDS011;41123;51.416;6.758;2022-07-23T00:10:38;11.25;;;6.43;;
55260;SDS011;41123;51.416;6.758;2022-07-23T00:13:04;12.95;;;6.55;;
55260;SDS011;41123;51.416;6.758;2022-07-23T00:15:30;12.02;;;5.97;;
55260;SDS011;41123;51.416;6.758;2022-07-23T00:17:56;10.32;;;5.78;;
55260;SDS011;41123;51.416;6.758;2022-07-23T00:20:22;13.80;;;6.80;;
55260;SDS011;41123;51.416;6.758;2022-07-23T00:22:52;12.27;;;6.28;;
55260;SDS011;41123;51.416;6.758;2022-07-23T00:25:19;12.75;;;6.10;;
55260;SDS011;41123;51.416;6.758;2022-07-23T00:27:45;10.27;;;5.90;;
55260;SDS011;41123;51.416;6.758;2022-07-23T00:30:11;10.45;;;5.65;;
55260;SDS011;41123;51.416;6.758;2022-07-23T00:32:54;12.18;;;5.72;;
55260;SDS011;41123;51.416;6.758;2022-07-23T00:35:22;13.77;;;6.22;;
55260;SDS011;41123;51.416;6.758;2022-07-23T00:37:48;13.23;;;6.00;;
55260;SDS011;41123;51.416;6.758;2022-07-23T00:40:14;12.07;;;6.78;;
55260;SDS011;41123;51.416;6.758;2022-07-23T00:42:40;14.67;;;6.03;;
55260;SDS011;41123;51.416;6.758;2022-07-23T00:45:07;10.03;;;5.77;;
55260;SDS011;41123;51.416;6.758;2022-07-23T00:47:33;12.95;;;6.55;;
55260;SDS011;41123;51.416;6.758;2022-07-23T00:49:59;12.57;;;6.57;;
55260;SDS011;41123;51.416;6.758;2022-07-23T00:52:25;12.82;;;7.00;;
55260;SDS011;41123;51.416;6.758;2022-07-23T00:54:51;13.55;;;7.00;;
55260;SDS011;41123;51.416;6.758;2022-07-23T00:57:17;11.77;;;6.07;;
55260;SDS011;41123;51.416;6.758;2022-07-23T00:59:44;14.32;;;6.90;;
55260;SDS011;41123;51.416;6.758;2022-07-23T01:02:10;11.93;;;6.60;;
55260;SDS011;41123;51.416;6.758;2022-07-23T01:04:36;14.68;;;7.13;;
55260;SDS011;41123;51.416;6.758;2022-07-23T01:07:02;15.20;;;6.90;;
55260;SDS011;41123;51.416;6.758;2022-07-23T01:09:28;14.30;;;7.38;;
55260;SDS011;41123;51.416;6.758;2022-07-23T01:11:54;17.65;;;7.95;;
55260;SDS011;41123;51.416;6.758;2022-07-23T01:14:20;14.43;;;7.40;;
55260;SDS011;41123;51.416;6.758;2022-07-23T01:16:47;14.23;;;7.32;;
55260;SDS011;41123;51.416;6.758;2022-07-23T01:19:13;15.77;;;7.80;;
55260;SDS011;41123;51.416;6.758;2022-07-23T01:21:41;14.10;;;7.03;;
55260;SDS011;41123;51.416;6.758;2022-07-23T01:24:07;15.73;;;6.97;;
55260;SDS011;41123;51.416;6.758;2022-07-23T01:26:33;14.75;;;7.60;;
55260;SDS011;41123;51.416;6.758;2022-07-23T01:28:59;14.50;;;7.10;;
55260;SDS011;41123;51.416;6.758;2022-07-23T01:31:26;16.07;;;7.20;;
55260;SDS011;41123;51.416;6.758;2022-07-23T01:33:52;15.85;;;7.22;;
55260;SDS011;41123;51.416;6.758;2022-07-23T01:36:18;15.13;;;7.90;;
55260;SDS011;41123;51.416;6.758;2022-07-23T01:38:44;15.57;;;7.73;;
55260;SDS011;41123;51.416;6.758;2022-07-23T01:41:10;17.15;;;7.90;;
55260;SDS011;41123;51.416;6.758;2022-07-23T01:43:35;15.07;;;7.63;;
55260;SDS011;41123;51.416;6.758;2022-07-23T01:46:01;18.42;;;8.52;;
55260;SDS011;41123;51.416;6.758;2022-07-23T01:48:27;15.75;;;7.38;;
55260;SDS011;41123;51.416;6.758;2022-07-23T01:50:53;15.88;;;7.85;;
55260;SDS011;41123;51.416;6.758;2022-07-23T01:53:19;13.13;;;7.60;;
55260;SDS011;41123;51.416;6.758;2022-07-23T01:55:45;16.93;;;7.50;;
55260;SDS011;41123;51.416;6.758;2022-07-23T01:58:11;16.50;;;8.63;;
55260;SDS011;41123;51.416;6.758;2022-07-23T02:00:37;16.05;;;9.25;;
55260;SDS011;41123;51.416;6.758;2022-07-23T02:03:03;17.30;;;8.48;;
55260;SDS011;41123;51.416;6.758;2022-07-23T02:05:29;13.98;;;7.80;;
55260;SDS011;41123;51.416;6.758;2022-07-23T02:07:56;16.30;;;9.38;;
55260;SDS011;41123;51.416;6.758;2022-07-23T02:10:23;15.60;;;8.70;;
55260;SDS011;41123;51.416;6.758;2022-07-23T02:12:49;15.00;;;8.52;;
55260;SDS011;41123;51.416;6.758;2022-07-23T02:15:15;14.82;;;8.63;;
55260;SDS011;41123;51.416;6.758;2022-07-23T02:17:41;15.27;;;8.75;;
55260;SDS011;41123;51.416;6.758;2022-07-23T02:20:07;16.80;;;8.55;;
55260;SDS011;41123;51.416;6.758;2022-07-23T02:22:34;16.02;;;7.75;;
55260;SDS011;41123;51.416;6.758;2022-07-23T02:25:00;17.05;;;8.57;;
55260;SDS011;41123;51.416;6.758;2022-07-23T02:27:27;16.07;;;7.93;;
55260;SDS011;41123;51.416;6.758;2022-07-23T02:29:53;16.48;;;8.38;;
55260;SDS011;41123;51.416;6.758;2022-07-23T02:32:19;17.73;;;8.50;;
55260;SDS011;41123;51.416;6.758;2022-07-23T02:34:46;16.77;;;8.63;;
55260;SDS011;41123;51.416;6.758;2022-07-23T02:37:12;17.73;;;8.37;;
55260;SDS011;41123;51.416;6.758;2022-07-23T02:39:38;16.70;;;8.67;;
55260;SDS011;41123;51.416;6.758;2022-07-23T02:42:04;16.45;;;8.93;;
55260;SDS011;41123;51.416;6.758;2022-07-23T02:44:30;19.23;;;8.73;;
55260;SDS011;41123;51.416;6.758;2022-07-23T02:46:56;16.20;;;8.80;;
55260;SDS011;41123;51.416;6.758;2022-07-23T02:49:22;18.73;;;9.25;;
55260;SDS011;41123;51.416;6.758;2022-07-23T02:51:48;16.42;;;8.85;;
55260;SDS011;41123;51.416;6.758;2022-07-23T02:54:14;18.50;;;9.05;;
55260;SDS011;41123;51.416;6.758;2022-07-23T02:56:40;16.48;;;8.90;;
55260;SDS011;41123;51.416;6.758;2022-07-23T02:59:06;18.02;;;8.95;;
55260;SDS011;41123;51.416;6.758;2022-07-23T03:01:32;14.82;;;9.05;;
55260;SDS011;41123;51.416;6.758;2022-07-23T03:03:58;17.25;;;9.65;;
55260;SDS011;41123;51.416;6.758;2022-07-23T03:06:24;15.10;;;9.13;;
55260;SDS011;41123;51.416;6.758;2022-07-23T03:08:50;14.52;;;9.00;;
55260;SDS011;41123;51.416;6.758;2022-07-23T03:11:16;23.58;;;9.05;;
55260;SDS011;41123;51.416;6.758;2022-07-23T03:13:42;19.23;;;9.30;;
55260;SDS011;41123;51.416;6.758;2022-07-23T03:16:08;15.57;;;8.82;;
55260;SDS011;41123;51.416;6.758;2022-07-23T03:18:35;17.70;;;9.25;;
55260;SDS011;41123;51.416;6.758;2022-07-23T03:21:01;16.20;;;9.55;;
55260;SDS011;41123;51.416;6.758;2022-07-23T03:23:27;16.35;;;9.27;;
55260;SDS011;41123;51.416;6.758;2022-07-23T03:25:53;17.50;;;9.07;;
55260;SDS011;41123;51.416;6.758;2022-07-23T03:28:19;16.90;;;9.97;;
55260;SDS011;41123;51.416;6.758;2022-07-23T03:30:45;17.95;;;9.60;;
55260;SDS011;41123;51.416;6.758;2022-07-23T03:33:15;17.50;;;9.60;;
55260;SDS011;41123;51.416;6.758;2022-07-23T03:35:42;15.85;;;9.25;;
55260;SDS011;41123;51.416;6.758;2022-07-23T03:38:08;14.75;;;9.30;;
55260;SDS011;41123;51.416;6.758;2022-07-23T03:40:34;16.58;;;9.10;;
55260;SDS011;41123;51.416;6.758;2022-07-23T03:43:00;22.00;;;9.52;;
55260;SDS011;41123;51.416;6.758;2022-07-23T03:45:26;17.48;;;9.32;;
55260;SDS011;41123;51.416;6.758;2022-07-23T03:47:52;18.25;;;9.07;;
55260;SDS011;41123;51.416;6.758;2022-07-23T03:50:18;20.25;;;9.32;;
55260;SDS011;41123;51.416;6.758;2022-07-23T03:52:44;16.10;;;9.38;;
55260;SDS011;41123;51.416;6.758;2022-07-23T03:55:10;17.50;;;9.20;;
55260;SDS011;41123;51.416;6.758;2022-07-23T03:57:36;16.67;;;9.70;;
55260;SDS011;41123;51.416;6.758;2022-07-23T04:00:03;18.90;;;9.38;;
55260;SDS011;41123;51.416;6.758;2022-07-23T04:02:30;18.27;;;9.27;;
55260;SDS011;41123;51.416;6.758;2022-07-23T04:04:56;15.75;;;9.13;;
55260;SDS011;41123;51.416;6.758;2022-07-23T04:07:22;16.70;;;9.95;;
55260;SDS011;41123;51.416;6.758;2022-07-23T04:09:48;19.23;;;9.50;;
55260;SDS011;41123;51.416;6.758;2022-07-23T04:12:14;17.83;;;8.93;;
55260;SDS011;41123;51.416;6.758;2022-07-23T04:14:40;19.80;;;10.00;;
55260;SDS011;41123;51.416;6.758;2022-07-23T04:17:06;19.63;;;9.43;;
55260;SDS011;41123;51.416;6.758;2022-07-23T04:19:32;20.63;;;9.93;;
55260;SDS011;41123;51.416;6.758;2022-07-23T04:21:59;15.68;;;9.45;;
55260;SDS011;41123;51.416;6.758;2022-07-23T04:24:25;20.45;;;9.93;;
55260;SDS011;41123;51.416;6.758;2022-07-23T04:26:51;18.15;;;9.73;;
55260;SDS011;41123;51.416;6.758;2022-07-23T04:29:17;19.90;;;10.15;;
55260;SDS011;41123;51.416;6.758;2022-07-23T04:31:43;16.08;;;9.82;;
55260;SDS011;41123;51.416;6.758;2022-07-23T04:34:09;17.58;;;10.30;;
55260;SDS011;41123;51.416;6.758;2022-07-23T04:36:35;17.83;;;10.25;;
55260;SDS011;41123;51.416;6.758;2022-07-23T04:39:01;22.10;;;11.20;;
55260;SDS011;41123;51.416;6.758;2022-07-23T04:41:27;15.55;;;10.10;;
55260;SDS011;41123;51.416;6.758;2022-07-23T04:43:53;18.08;;;11.40;;
55260;SDS011;41123;51.416;6.758;2022-07-23T04:46:19;17.92;;;11.05;;
55260;SDS011;41123;51.416;6.758;2022-07-23T04:48:45;17.85;;;11.00;;
55260;SDS011;41123;51.416;6.758;2022-07-23T04:51:11;21.43;;;11.10;;
55260;SDS011;41123;51.416;6.758;2022-07-23T04:53:37;18.40;;;10.70;;
55260;SDS011;41123;51.416;6.758;2022-07-23T04:56:03;19.10;;;11.23;;
55260;SDS011;41123;51.416;6.758;2022-07-23T04:58:29;18.90;;;11.20;;
55260;SDS011;41123;51.416;6.758;2022-07-23T05:00:57;17.63;;;11.40;;
55260;SDS011;41123;51.416;6.758;2022-07-23T05:03:23;20.33;;;11.23;;
55260;SDS011;41123;51.416;6.758;2022-07-23T05:05:49;20.90;;;10.87;;
55260;SDS011;41123;51.416;6.758;2022-07-23T05:08:15;18.65;;;10.85;;
55260;SDS011;41123;51.416;6.758;2022-07-23T05:10:41;17.38;;;11.15;;
55260;SDS011;41123;51.416;6.758;2022-07-23T05:13:07;16.63;;;10.85;;
55260;SDS011;41123;51.416;6.758;2022-07-23T05:15:33;18.70;;;11.13;;
55260;SDS011;41123;51.416;6.758;2022-07-23T05:17:59;20.40;;;11.35;;
55260;SDS011;41123;51.416;6.758;2022-07-23T05:20:25;18.00;;;11.02;;
55260;SDS011;41123;51.416;6.758;2022-07-23T05:22:51;18.05;;;11.32;;
55260;SDS011;41123;51.416;6.758;2022-07-23T05:25:17;17.33;;;11.38;;
55260;SDS011;41123;51.416;6.758;2022-07-23T05:27:43;18.05;;;11.15;;
55260;SDS011;41123;51.416;6.758;2022-07-23T05:30:09;18.25;;;11.10;;
55260;SDS011;41123;51.416;6.758;2022-07-23T05:32:35;17.65;;;10.90;;
55260;SDS011;41123;51.416;6.758;2022-07-23T05:35:02;17.58;;;11.02;;
55260;SDS011;41123;51.416;6.758;2022-07-23T05:37:28;18.13;;;10.98;;
55260;SDS011;41123;51.416;6.758;2022-07-23T05:39:54;20.43;;;11.07;;
55260;SDS011;41123;51.416;6.758;2022-07-23T05:42:20;21.30;;;11.13;;
55260;SDS011;41123;51.416;6.758;2022-07-23T05:44:46;19.33;;;11.43;;
55260;SDS011;41123;51.416;6.758;2022-07-23T05:47:12;20.48;;;10.90;;
55260;SDS011;41123;51.416;6.758;2022-07-23T05:49:38;19.85;;;10.93;;
55260;SDS011;41123;51.416;6.758;2022-07-23T05:52:04;20.27;;;11.40;;
55260;SDS011;41123;51.416;6.758;2022-07-23T05:54:30;19.90;;;11.30;;
55260;SDS011;41123;51.416;6.758;2022-07-23T05:56:56;18.83;;;11.67;;
55260;SDS011;41123;51.416;6.758;2022-07-23T05:59:22;21.95;;;11.93;;
55260;SDS011;41123;51.416;6.758;2022-07-23T06:01:48;19.77;;;11.43;;
55260;SDS011;41123;51.416;6.758;2022-07-23T06:04:14;21.40;;;12.30;;
55260;SDS011;41123;51.416;6.758;2022-07-23T06:06:40;19.75;;;11.85;;
55260;SDS011;41123;51.416;6.758;2022-07-23T06:09:06;19.50;;;12.60;;
55260;SDS011;41123;51.416;6.758;2022-07-23T06:11:32;22.05;;;12.23;;
55260;SDS011;41123;51.416;6.758;2022-07-23T06:13:58;22.08;;;12.63;;
55260;SDS011;41123;51.416;6.758;2022-07-23T06:16:24;25.03;;;13.33;;
55260;SDS011;41123;51.416;6.758;2022-07-23T06:18:50;24.73;;;13.43;;
55260;SDS011;41123;51.416;6.758;2022-07-23T06:21:16;25.10;;;13.70;;
55260;SDS011;41123;51.416;6.758;2022-07-23T06:23:42;24.20;;;13.25;;
55260;SDS011;41123;51.416;6.758;2022-07-23T06:26:08;22.83;;;14.20;;
55260;SDS011;41123;51.416;6.758;2022-07-23T06:28:34;27.00;;;14.32;;
55260;SDS011;41123;51.416;6.758;2022-07-23T06:31:00;27.38;;;14.85;;
55260;SDS011;41123;51.416;6.758;2022-07-23T06:33:26;24.45;;;14.18;;
55260;SDS011;41123;51.416;6.758;2022-07-23T06:35:52;27.45;;;15.55;;
55260;SDS011;41123;51.416;6.758;2022-07-23T06:38:18;26.87;;;15.43;;
55260;SDS011;41123;51.416;6.758;2022-07-23T06:40:44;26.30;;;15.73;;
55260;SDS011;41123;51.416;6.758;2022-07-23T06:43:10;26.75;;;15.50;;
55260;SDS011;41123;51.416;6.758;2022-07-23T06:45:36;27.48;;;15.35;;
55260;SDS011;41123;51.416;6.758;2022-07-23T06:48:02;27.27;;;15.15;;
55260;SDS011;41123;51.416;6.758;2022-07-23T06:50:28;27.80;;;15.40;;
55260;SDS011;41123;51.416;6.758;2022-07-23T06:52:54;26.35;;;15.65;;
55260;SDS011;41123;51.416;6.758;2022-07-23T06:55:20;28.25;;;15.70;;
55260;SDS011;41123;51.416;6.758;2022-07-23T06:57:46;27.70;;;15.43;;
55260;SDS011;41123;51.416;6.758;2022-07-23T07:00:12;26.50;;;15.70;;
55260;SDS011;41123;51.416;6.758;2022-07-23T07:02:39;31.13;;;17.30;;
55260;SDS011;41123;51.416;6.758;2022-07-23T07:05:05;26.20;;;16.02;;
55260;SDS011;41123;51.416;6.758;2022-07-23T07:07:31;26.27;;;15.55;;
55260;SDS011;41123;51.416;6.758;2022-07-23T07:09:57;29.98;;;16.15;;
55260;SDS011;41123;51.416;6.758;2022-07-23T07:12:23;23.98;;;14.80;;
55260;SDS011;41123;51.416;6.758;2022-07-23T07:14:49;24.93;;;14.20;;
55260;SDS011;41123;51.416;6.758;2022-07-23T07:17:15;28.30;;;14.38;;
55260;SDS011;41123;51.416;6.758;2022-07-23T07:19:41;25.20;;;15.20;;
55260;SDS011;41123;51.416;6.758;2022-07-23T07:22:07;25.35;;;14.82;;
55260;SDS011;41123;51.416;6.758;2022-07-23T07:24:33;28.35;;;14.75;;
55260;SDS011;41123;51.416;6.758;2022-07-23T07:26:59;29.20;;;16.30;;
55260;SDS011;41123;51.416;6.758;2022-07-23T07:29:25;30.52;;;16.23;;
55260;SDS011;41123;51.416;6.758;2022-07-23T07:31:52;25.17;;;14.00;;
55260;SDS011;41123;51.416;6.758;2022-07-23T07:34:18;26.03;;;13.83;;
55260;SDS011;41123;51.416;6.758;2022-07-23T07:36:43;30.50;;;15.73;;
55260;SDS011;41123;51.416;6.758;2022-07-23T07:39:09;30.67;;;17.48;;
55260;SDS011;41123;51.416;6.758;2022-07-23T07:41:37;30.25;;;16.35;;
55260;SDS011;41123;51.416;6.758;2022-07-23T07:44:02;27.77;;;13.63;;
55260;SDS011;41123;51.416;6.758;2022-07-23T07:46:29;31.92;;;17.63;;
55260;SDS011;41123;51.416;6.758;2022-07-23T07:48:55;28.83;;;16.70;;
55260;SDS011;41123;51.416;6.758;2022-07-23T07:51:21;23.90;;;16.25;;
55260;SDS011;41123;51.416;6.758;2022-07-23T07:53:47;27.27;;;17.40;;
55260;SDS011;41123;51.416;6.758;2022-07-23T07:56:13;25.20;;;15.02;;
55260;SDS011;41123;51.416;6.758;2022-07-23T07:58:39;27.40;;;14.98;;
55260;SDS011;41123;51.416;6.758;2022-07-23T08:01:05;22.73;;;13.73;;
55260;SDS011;41123;51.416;6.758;2022-07-23T08:03:32;21.80;;;11.90;;
55260;SDS011;41123;51.416;6.758;2022-07-23T08:05:58;18.90;;;11.13;;
55260;SDS011;41123;51.416;6.758;2022-07-23T08:08:24;16.65;;;9.18;;
55260;SDS011;41123;51.416;6.758;2022-07-23T08:10:50;17.35;;;7.20;;
55260;SDS011;41123;51.416;6.758;2022-07-23T08:13:16;11.63;;;6.10;;
55260;SDS011;41123;51.416;6.758;2022-07-23T08:15:42;11.30;;;5.00;;
55260;SDS011;41123;51.416;6.758;2022-07-23T08:18:08;11.65;;;4.88;;
55260;SDS011;41123;51.416;6.758;2022-07-23T08:20:35;10.10;;;4.57;;
55260;SDS011;41123;51.416;6.758;2022-07-23T08:23:05;11.43;;;5.03;;
55260;SDS011;41123;51.416;6.758;2022-07-23T08:25:32;11.85;;;4.68;;
55260;SDS011;41123;51.416;6.758;2022-07-23T08:27:59;8.73;;;4.70;;
55260;SDS011;41123;51.416;6.758;2022-07-23T08:30:25;11.38;;;4.80;;
55260;SDS011;41123;51.416;6.758;2022-07-23T08:35:17;13.27;;;4.90;;
55260;SDS011;41123;51.416;6.758;2022-07-23T08:37:43;9.43;;;4.40;;
55260;SDS011;41123;51.416;6.758;2022-07-23T08:40:10;10.07;;;4.35;;
55260;SDS011;41123;51.416;6.758;2022-07-23T08:42:36;10.20;;;4.45;;
55260;SDS011;41123;51.416;6.758;2022-07-23T08:45:03;7.13;;;4.32;;
55260;SDS011;41123;51.416;6.758;2022-07-23T08:47:29;9.70;;;4.20;;
55260;SDS011;41123;51.416;6.758;2022-07-23T08:49:58;10.73;;;4.97;;
55260;SDS011;41123;51.416;6.758;2022-07-23T08:52:24;9.60;;;4.50;;
55260;SDS011;41123;51.416;6.758;2022-07-23T08:54:51;8.57;;;4.60;;
55260;SDS011;41123;51.416;6.758;2022-07-23T08:57:18;11.85;;;5.30;;
55260;SDS011;41123;51.416;6.758;2022-07-23T08:59:44;10.47;;;5.20;;
55260;SDS011;41123;51.416;6.758;2022-07-23T09:02:11;9.65;;;5.20;;
55260;SDS011;41123;51.416;6.758;2022-07-23T09:04:37;11.20;;;5.18;;
55260;SDS011;41123;51.416;6.758;2022-07-23T09:07:03;10.43;;;4.75;;
55260;SDS011;41123;51.416;6.758;2022-07-23T09:09:29;12.00;;;4.40;;
55260;SDS011;41123;51.416;6.758;2022-07-23T09:12:06;11.05;;;4.90;;
55260;SDS011;41123;51.416;6.758;2022-07-23T09:14:36;11.23;;;5.47;;
55260;SDS011;41123;51.416;6.758;2022-07-23T09:17:13;10.00;;;4.72;;
55260;SDS011;41123;51.416;6.758;2022-07-23T09:19:39;8.50;;;5.00;;
55260;SDS011;41123;51.416;6.758;2022-07-23T09:25:05;9.90;;;4.32;;
55260;SDS011;41123;51.416;6.758;2022-07-23T09:30:11;11.60;;;4.70;;
55260;SDS011;41123;51.416;6.758;2022-07-23T09:32:38;9.32;;;4.10;;
55260;SDS011;41123;51.416;6.758;2022-07-23T09:35:04;8.75;;;3.65;;
55260;SDS011;41123;51.416;6.758;2022-07-23T09:37:30;8.68;;;4.00;;
55260;SDS011;41123;51.416;6.758;2022-07-23T09:40:18;8.18;;;3.70;;
55260;SDS011;41123;51.416;6.758;2022-07-23T09:42:43;9.40;;;3.53;;
55260;SDS011;41123;51.416;6.758;2022-07-23T09:45:20;8.40;;;3.63;;
55260;SDS011;41123;51.416;6.758;2022-07-23T09:47:46;6.68;;;3.17;;
55260;SDS011;41123;51.416;6.758;2022-07-23T09:50:12;9.52;;;3.60;;
55260;SDS011;41123;51.416;6.758;2022-07-23T09:52:42;17.35;;;5.18;;
55260;SDS011;41123;51.416;6.758;2022-07-23T09:57:31;8.15;;;3.35;;
55260;SDS011;41123;51.416;6.758;2022-07-23T10:02:14;7.17;;;3.00;;
55260;SDS011;41123;51.416;6.758;2022-07-23T10:04:59;6.60;;;2.67;;
55260;SDS011;41123;51.416;6.758;2022-07-23T10:07:47;5.65;;;2.80;;
55260;SDS011;41123;51.416;6.758;2022-07-23T10:10:38;5.60;;;2.33;;
55260;SDS011;41123;51.416;6.758;2022-07-23T10:13:34;6.97;;;2.85;;
55260;SDS011;41123;51.416;6.758;2022-07-23T10:16:16;8.35;;;2.30;;
55260;SDS011;41123;51.416;6.758;2022-07-23T10:18:42;8.40;;;3.17;;
55260;SDS011;41123;51.416;6.758;2022-07-23T10:21:08;4.22;;;2.30;;
55260;SDS011;41123;51.416;6.758;2022-07-23T10:23:43;5.45;;;2.70;;
55260;SDS011;41123;51.416;6.758;2022-07-23T10:29:13;6.22;;;2.97;;
55260;SDS011;41123;51.416;6.758;2022-07-23T10:31:56;5.85;;;2.50;;
55260;SDS011;41123;51.416;6.758;2022-07-23T10:39:39;4.50;;;2.30;;
55260;SDS011;41123;51.416;6.758;2022-07-23T10:42:14;7.30;;;2.70;;
55260;SDS011;41123;51.416;6.758;2022-07-23T10:44:42;4.15;;;2.35;;
55260;SDS011;41123;51.416;6.758;2022-07-23T10:51:13;6.47;;;2.60;;
55260;SDS011;41123;51.416;6.758;2022-07-23T10:56:15;6.25;;;2.40;;
55260;SDS011;41123;51.416;6.758;2022-07-23T10:58:48;4.40;;;2.30;;
55260;SDS011;41123;51.416;6.758;2022-07-23T11:03:59;5.68;;;2.17;;
55260;SDS011;41123;51.416;6.758;2022-07-23T11:07:11;5.35;;;2.22;;
55260;SDS011;41123;51.416;6.758;2022-07-23T11:15:04;4.38;;;2.17;;
55260;SDS011;41123;51.416;6.758;2022-07-23T11:17:32;5.10;;;2.00;;
55260;SDS011;41123;51.416;6.758;2022-07-23T11:25:12;5.13;;;1.88;;
55260;SDS011;41123;51.416;6.758;2022-07-23T11:27:42;7.30;;;3.20;;
55260;SDS011;41123;51.416;6.758;2022-07-23T11:30:09;5.85;;;2.83;;
55260;SDS011;41123;51.416;6.758;2022-07-23T11:32:40;4.28;;;2.65;;
55260;SDS011;41123;51.416;6.758;2022-07-23T11:40:38;4.80;;;2.20;;
55260;SDS011;41123;51.416;6.758;2022-07-23T11:43:06;7.15;;;2.78;;
55260;SDS011;41123;51.416;6.758;2022-07-23T11:45:34;6.90;;;2.40;;
55260;SDS011;41123;51.416;6.758;2022-07-23T11:48:01;6.30;;;2.60;;
55260;SDS011;41123;51.416;6.758;2022-07-23T11:50:28;4.90;;;2.22;;
55260;SDS011;41123;51.416;6.758;2022-07-23T11:52:54;5.55;;;2.40;;
55260;SDS011;41123;51.416;6.758;2022-07-23T11:55:21;4.20;;;2.53;;
55260;SDS011;41123;51.416;6.758;2022-07-23T11:57:47;3.88;;;2.60;;
55260;SDS011;41123;51.416;6.758;2022-07-23T12:00:15;6.22;;;2.30;;
55260;SDS011;41123;51.416;6.758;2022-07-23T12:02:45;6.10;;;2.40;;
55260;SDS011;41123;51.416;6.758;2022-07-23T12:05:12;14.52;;;6.68;;
55260;SDS011;41123;51.416;6.758;2022-07-23T12:07:40;9.00;;;4.38;;
55260;SDS011;41123;51.416;6.758;2022-07-23T12:10:10;7.80;;;4.00;;
55260;SDS011;41123;51.416;6.758;2022-07-23T12:12:38;8.35;;;3.60;;
55260;SDS011;41123;51.416;6.758;2022-07-23T12:15:04;6.97;;;3.10;;
55260;SDS011;41123;51.416;6.758;2022-07-23T12:17:32;7.35;;;3.30;;
55260;SDS011;41123;51.416;6.758;2022-07-23T12:19:59;9.60;;;4.70;;
55260;SDS011;41123;51.416;6.758;2022-07-23T12:22:33;6.55;;;3.78;;
55260;SDS011;41123;51.416;6.758;2022-07-23T12:25:00;6.35;;;2.83;;
55260;SDS011;41123;51.416;6.758;2022-07-23T12:27:27;5.97;;;2.90;;
55260;SDS011;41123;51.416;6.758;2022-07-23T12:29:54;5.05;;;2.90;;
55260;SDS011;41123;51.416;6.758;2022-07-23T12:32:24;4.38;;;2.20;;
55260;SDS011;41123;51.416;6.758;2022-07-23T12:34:51;5.93;;;2.80;;
55260;SDS011;41123;51.416;6.758;2022-07-23T12:37:29;7.05;;;3.50;;
55260;SDS011;41123;51.416;6.758;2022-07-23T12:39:55;4.32;;;2.08;;
55260;SDS011;41123;51.416;6.758;2022-07-23T12:42:21;4.20;;;2.20;;
55260;SDS011;41123;51.416;6.758;2022-07-23T12:47:49;5.57;;;2.20;;
55260;SDS011;41123;51.416;6.758;2022-07-23T12:50:35;4.45;;;2.10;;
55260;SDS011;41123;51.416;6.758;2022-07-23T12:53:09;4.78;;;2.10;;
55260;SDS011;41123;51.416;6.758;2022-07-23T12:55:35;5.07;;;2.45;;
55260;SDS011;41123;51.416;6.758;2022-07-23T12:58:12;5.65;;;2.40;;
55260;SDS011;41123;51.416;6.758;2022-07-23T13:00:54;5.15;;;2.10;;
55260;SDS011;41123;51.416;6.758;2022-07-23T13:03:30;6.20;;;2.80;;
55260;SDS011;41123;51.416;6.758;2022-07-23T13:05:57;4.78;;;1.95;;
55260;SDS011;41123;51.416;6.758;2022-07-23T13:08:24;4.25;;;2.35;;
55260;SDS011;41123;51.416;6.758;2022-07-23T13:10:50;4.00;;;2.35;;
55260;SDS011;41123;51.416;6.758;2022-07-23T13:13:23;5.45;;;2.22;;
55260;SDS011;41123;51.416;6.758;2022-07-23T13:15:51;6.47;;;2.58;;
55260;SDS011;41123;51.416;6.758;2022-07-23T13:18:17;4.20;;;2.22;;
55260;SDS011;41123;51.416;6.758;2022-07-23T13:20:44;4.03;;;2.10;;
55260;SDS011;41123;51.416;6.758;2022-07-23T13:23:11;3.63;;;2.20;;
55260;SDS011;41123;51.416;6.758;2022-07-23T13:25:37;3.50;;;2.17;;
55260;SDS011;41123;51.416;6.758;2022-07-23T13:28:04;4.40;;;2.35;;
55260;SDS011;41123;51.416;6.758;2022-07-23T13:30:30;5.30;;;2.38;;
55260;SDS011;41123;51.416;6.758;2022-07-23T13:32:56;3.40;;;2.20;;
55260;SDS011;41123;51.416;6.758;2022-07-23T13:35:22;4.22;;;2.10;;
55260;SDS011;41123;51.416;6.758;2022-07-23T13:37:49;4.00;;;2.03;;
55260;SDS011;41123;51.416;6.758;2022-07-23T13:40:15;5.18;;;2.22;;
55260;SDS011;41123;51.416;6.758;2022-07-23T13:42:41;6.15;;;2.60;;
55260;SDS011;41123;51.416;6.758;2022-07-23T13:45:09;4.35;;;2.28;;
55260;SDS011;41123;51.416;6.758;2022-07-23T13:47:35;3.83;;;2.38;;
55260;SDS011;41123;51.416;6.758;2022-07-23T13:50:01;4.60;;;2.00;;
55260;SDS011;41123;51.416;6.758;2022-07-23T13:52:27;5.28;;;2.10;;
55260;SDS011;41123;51.416;6.758;2022-07-23T13:54:54;5.18;;;2.10;;
55260;SDS011;41123;51.416;6.758;2022-07-23T13:57:20;5.55;;;2.05;;
55260;SDS011;41123;51.416;6.758;2022-07-23T13:59:46;3.38;;;1.80;;
55260;SDS011;41123;51.416;6.758;2022-07-23T14:02:13;3.75;;;2.10;;
55260;SDS011;41123;51.416;6.758;2022-07-23T14:04:41;4.00;;;2.03;;
55260;SDS011;41123;51.416;6.758;2022-07-23T14:07:07;5.35;;;2.10;;
55260;SDS011;41123;51.416;6.758;2022-07-23T14:09:33;4.80;;;2.30;;
55260;SDS011;41123;51.416;6.758;2022-07-23T14:11:59;4.70;;;2.27;;
55260;SDS011;41123;51.416;6.758;2022-07-23T14:14:25;3.22;;;2.00;;
55260;SDS011;41123;51.416;6.758;2022-07-23T14:16:51;3.45;;;2.03;;
55260;SDS011;41123;51.416;6.758;2022-07-23T14:19:18;4.22;;;2.20;;
55260;SDS011;41123;51.416;6.758;2022-07-23T14:21:44;5.10;;;2.47;;
55260;SDS011;41123;51.416;6.758;2022-07-23T14:24:10;5.68;;;2.35;;
55260;SDS011;41123;51.416;6.758;2022-07-23T14:26:36;4.68;;;2.17;;
55260;SDS011;41123;51.416;6.758;2022-07-23T14:29:02;4.10;;;2.20;;
55260;SDS011;41123;51.416;6.758;2022-07-23T14:31:28;5.63;;;2.70;;
55260;SDS011;41123;51.416;6.758;2022-07-23T14:33:55;5.43;;;2.38;;
55260;SDS011;41123;51.416;6.758;2022-07-23T14:36:21;6.32;;;2.30;;
55260;SDS011;41123;51.416;6.758;2022-07-23T14:38:47;6.10;;;2.60;;
55260;SDS011;41123;51.416;6.758;2022-07-23T14:41:13;4.97;;;2.50;;
55260;SDS011;41123;51.416;6.758;2022-07-23T14:43:39;6.40;;;2.50;;
55260;SDS011;41123;51.416;6.758;2022-07-23T14:46:06;8.73;;;2.63;;
55260;SDS011;41123;51.416;6.758;2022-07-23T14:48:32;7.87;;;2.63;;
55260;SDS011;41123;51.416;6.758;2022-07-23T14:50:58;4.65;;;2.63;;
55260;SDS011;41123;51.416;6.758;2022-07-23T14:53:24;3.10;;;2.10;;
55260;SDS011;41123;51.416;6.758;2022-07-23T14:55:51;4.70;;;2.20;;
55260;SDS011;41123;51.416;6.758;2022-07-23T14:58:17;4.32;;;2.25;;
55260;SDS011;41123;51.416;6.758;2022-07-23T15:00:43;4.80;;;2.40;;
55260;SDS011;41123;51.416;6.758;2022-07-23T15:03:10;5.28;;;2.30;;
55260;SDS011;41123;51.416;6.758;2022-07-23T15:05:36;4.07;;;2.33;;
55260;SDS011;41123;51.416;6.758;2022-07-23T15:08:02;3.50;;;2.20;;
55260;SDS011;41123;51.416;6.758;2022-07-23T15:10:29;5.07;;;2.37;;
55260;SDS011;41123;51.416;6.758;2022-07-23T15:12:55;5.18;;;2.30;;
55260;SDS011;41123;51.416;6.758;2022-07-23T15:15:21;5.53;;;2.60;;
55260;SDS011;41123;51.416;6.758;2022-07-23T15:17:47;5.43;;;2.42;;
55260;SDS011;41123;51.416;6.758;2022-07-23T15:20:13;3.70;;;2.30;;
55260;SDS011;41123;51.416;6.758;2022-07-23T15:22:40;3.25;;;2.00;;
55260;SDS011;41123;51.416;6.758;2022-07-23T15:25:06;4.75;;;2.50;;